createdAt,value
2018-09-19T00:00:42.645Z,9.17
2018-09-19T00:03:15.253Z,16.63
2018-09-19T00:05:48.381Z,8.80
2018-09-19T00:08:21.257Z,7.20
2018-09-19T00:10:58.021Z,8.67
2018-09-19T00:13:34.065Z,9.07
2018-09-19T00:16:13.050Z,9.23
2018-09-19T00:18:48.362Z,7.90
2018-09-19T00:21:22.673Z,7.65
2018-09-19T00:24:00.671Z,9.20
2018-09-19T00:26:35.631Z,17.33
2018-09-19T00:29:12.451Z,12.43
2018-09-19T00:31:45.950Z,11.20
2018-09-19T00:34:24.152Z,9.30
2018-09-19T00:37:03.213Z,10.50
2018-09-19T00:39:38.898Z,12.43
2018-09-19T00:42:13.061Z,12.93
2018-09-19T00:44:47.780Z,13.38
2018-09-19T00:47:21.209Z,15.80
2018-09-19T00:49:59.370Z,10.97
2018-09-19T00:52:33.560Z,12.43
2018-09-19T00:55:07.718Z,11.50
2018-09-19T01:00:34.132Z,12.77
2018-09-19T01:03:08.166Z,14.43
2018-09-19T01:05:45.922Z,18.37
2018-09-19T01:08:18.755Z,12.07
2018-09-19T01:10:54.053Z,8.70
2018-09-19T01:13:28.401Z,13.93
2018-09-19T01:16:02.201Z,11.83
2018-09-19T01:18:35.308Z,20.47
2018-09-19T01:21:15.912Z,8.97
2018-09-19T01:23:50.117Z,9.10
2018-09-19T01:26:31.251Z,9.43
2018-09-19T01:29:05.172Z,10.97
2018-09-19T01:31:38.778Z,7.07
2018-09-19T01:34:11.630Z,13.10
2018-09-19T01:36:44.659Z,8.70
2018-09-19T01:39:17.634Z,8.87
2018-09-19T01:41:51.369Z,7.23
2018-09-19T01:44:24.901Z,8.40
2018-09-19T01:47:05.767Z,7.50
2018-09-19T01:49:38.746Z,7.83
2018-09-19T01:52:11.674Z,7.47
2018-09-19T01:54:50.684Z,8.30
2018-09-19T01:57:25.139Z,8.00
2018-09-19T02:00:01.345Z,8.03
2018-09-19T02:02:40.200Z,6.93
2018-09-19T02:05:13.340Z,9.33
2018-09-19T02:07:48.005Z,8.00
2018-09-19T02:10:23.976Z,8.27
2018-09-19T02:13:02.849Z,7.07
2018-09-19T02:15:36.127Z,7.67
2018-09-19T02:18:07.672Z,6.83
2018-09-19T02:20:41.198Z,7.93
2018-09-19T02:23:13.648Z,7.73
2018-09-19T02:25:51.552Z,7.67
2018-09-19T02:28:24.473Z,8.10
2018-09-19T02:30:59.649Z,8.17
2018-09-19T02:33:32.526Z,7.63
2018-09-19T02:36:12.003Z,6.40
2018-09-19T02:38:44.565Z,7.07
2018-09-19T02:41:17.024Z,6.80
2018-09-19T02:43:49.707Z,8.40
2018-09-19T02:46:22.551Z,6.93
2018-09-19T02:48:55.468Z,7.30
2018-09-19T02:51:31.171Z,13.03
2018-09-19T02:54:04.102Z,7.30
2018-09-19T02:56:37.303Z,6.97
2018-09-19T02:59:10.192Z,7.17
2018-09-19T03:01:43.125Z,7.60
2018-09-19T03:04:17.241Z,7.97
2018-09-19T03:06:57.140Z,10.43
2018-09-19T03:09:32.118Z,8.23
2018-09-19T03:12:09.950Z,7.97
2018-09-19T03:14:43.951Z,7.57
2018-09-19T03:17:21.019Z,9.17
2018-09-19T03:19:54.336Z,8.17
2018-09-19T03:22:28.271Z,8.77
2018-09-19T03:25:03.819Z,8.68
2018-09-19T03:27:37.879Z,7.80
2018-09-19T03:30:18.755Z,8.20
2018-09-19T03:32:51.954Z,8.37
2018-09-19T03:35:26.747Z,9.30
2018-09-19T03:37:59.733Z,10.17
2018-09-19T03:40:34.146Z,11.10
2018-09-19T03:43:07.128Z,9.40
2018-09-19T03:45:40.434Z,8.30
2018-09-19T03:48:13.804Z,8.87
2018-09-19T03:50:47.057Z,9.90
2018-09-19T03:53:19.658Z,10.67
2018-09-19T03:55:54.423Z,8.63
2018-09-19T03:58:27.858Z,12.07
2018-09-19T04:01:06.641Z,8.27
2018-09-19T04:03:39.498Z,9.70
2018-09-19T04:06:12.862Z,10.60
2018-09-19T04:08:46.791Z,19.47
2018-09-19T04:11:19.811Z,17.50
2018-09-19T04:13:52.615Z,15.15
2018-09-19T04:16:25.268Z,12.00
2018-09-19T04:18:58.218Z,14.90
2018-09-19T04:21:31.806Z,33.17
2018-09-19T04:24:04.530Z,17.40
2018-09-19T04:26:37.321Z,13.65
2018-09-19T04:29:11.506Z,10.43
2018-09-19T04:31:44.593Z,13.55
2018-09-19T04:34:23.783Z,14.43
2018-09-19T04:36:57.044Z,12.33
2018-09-19T04:40:58.763Z,11.18
2018-09-19T04:43:31.497Z,9.97
2018-09-19T04:46:04.420Z,9.10
2018-09-19T04:48:37.160Z,9.98
2018-09-19T04:51:10.517Z,10.57
2018-09-19T04:53:43.204Z,9.20
2018-09-19T04:56:15.858Z,9.85
2018-09-19T04:58:50.094Z,8.97
2018-09-19T05:01:22.756Z,9.18
2018-09-19T05:03:58.097Z,8.80
2018-09-19T05:06:31.750Z,10.67
2018-09-19T05:09:05.165Z,10.17
2018-09-19T05:11:37.858Z,10.10
2018-09-19T05:14:11.113Z,9.53
2018-09-19T05:16:43.814Z,9.20
2018-09-19T05:19:17.216Z,9.43
2018-09-19T05:21:49.913Z,9.13
2018-09-19T05:24:28.949Z,7.57
2018-09-19T05:27:02.481Z,8.40
2018-09-19T05:29:35.697Z,7.77
2018-09-19T05:32:16.037Z,8.37
2018-09-19T05:34:49.958Z,8.50
2018-09-19T05:37:22.697Z,9.17
2018-09-19T05:39:55.358Z,9.00
2018-09-19T05:42:28.186Z,9.23
2018-09-19T05:45:00.964Z,9.27
2018-09-19T05:47:39.239Z,9.47
2018-09-19T05:50:12.586Z,8.67
2018-09-19T05:52:45.418Z,10.38
2018-09-19T05:55:18.294Z,8.83
2018-09-19T05:57:51.181Z,8.87
2018-09-19T06:00:24.075Z,8.93
2018-09-19T06:02:56.893Z,9.83
2018-09-19T06:06:58.366Z,8.67
2018-09-19T06:09:31.657Z,9.13
2018-09-19T06:12:04.397Z,10.00
2018-09-19T06:14:37.212Z,9.10
2018-09-19T06:17:10.119Z,8.60
2018-09-19T06:19:43.672Z,10.57
2018-09-19T06:22:18.225Z,10.37
2018-09-19T06:24:50.874Z,9.97
2018-09-19T06:27:23.923Z,10.70
2018-09-19T06:29:56.919Z,11.57
2018-09-19T06:32:29.817Z,10.30
2018-09-19T06:35:02.518Z,13.60
2018-09-19T06:37:41.689Z,9.77
2018-09-19T06:40:14.502Z,10.67
2018-09-19T06:42:47.521Z,10.73
2018-09-19T06:45:20.221Z,11.33
2018-09-19T06:47:53.010Z,10.43
2018-09-19T06:50:25.839Z,10.70
2018-09-19T06:52:59.583Z,12.50
2018-09-19T06:55:32.279Z,11.13
2018-09-19T06:58:05.129Z,12.53
2018-09-19T07:00:37.940Z,11.80
2018-09-19T07:03:18.480Z,10.63
2018-09-19T07:05:51.617Z,13.80
2018-09-19T07:08:24.828Z,12.47
2018-09-19T07:10:57.663Z,10.70
2018-09-19T07:13:31.097Z,10.57
2018-09-19T07:16:03.766Z,11.45
2018-09-19T07:18:37.529Z,12.47
2018-09-19T07:21:10.369Z,10.67
2018-09-19T07:23:43.367Z,10.58
2018-09-19T07:26:16.175Z,10.57
2018-09-19T07:28:49.190Z,10.00
2018-09-19T07:31:28.132Z,10.27
2018-09-19T07:34:00.881Z,9.70
2018-09-19T07:36:33.872Z,11.05
2018-09-19T07:39:09.698Z,10.00
2018-09-19T07:41:42.580Z,10.25
2018-09-19T07:44:15.281Z,9.80
2018-09-19T07:46:48.258Z,10.10
2018-09-19T07:49:21.018Z,10.27
2018-09-19T07:51:53.944Z,11.60
2018-09-19T07:54:26.881Z,10.03
2018-09-19T07:56:59.558Z,9.13
2018-09-19T07:59:32.361Z,9.87
2018-09-19T08:02:12.136Z,9.73
2018-09-19T08:04:44.870Z,10.40
2018-09-19T08:07:17.559Z,11.53
2018-09-19T08:09:52.427Z,10.73
2018-09-19T08:12:30.013Z,10.90
2018-09-19T08:15:03.074Z,12.20
2018-09-19T08:17:37.205Z,10.20
2018-09-19T08:20:10.025Z,9.83
2018-09-19T08:22:43.080Z,9.70
2018-09-19T08:25:16.070Z,10.50
2018-09-19T08:27:50.606Z,10.23
2018-09-19T08:30:23.357Z,10.40
2018-09-19T08:32:56.313Z,10.30
2018-09-19T08:35:29.723Z,11.17
2018-09-19T08:38:02.978Z,9.83
2018-09-19T08:40:38.598Z,9.77
2018-09-19T08:43:11.509Z,10.03
2018-09-19T08:45:44.606Z,9.50
2018-09-19T08:48:17.708Z,10.17
2018-09-19T08:50:50.393Z,10.20
2018-09-19T08:53:23.182Z,11.97
2018-09-19T08:55:55.867Z,9.60
2018-09-19T08:58:29.017Z,9.47
2018-09-19T09:01:02.700Z,9.70
2018-09-19T09:03:35.407Z,10.10
2018-09-19T09:06:08.392Z,11.22
2018-09-19T09:08:41.335Z,11.35
2018-09-19T09:11:14.608Z,9.70
2018-09-19T09:13:47.425Z,9.73
2018-09-19T09:16:25.295Z,9.00
2018-09-19T09:18:58.308Z,10.30
2018-09-19T09:21:31.088Z,9.63
2018-09-19T09:24:03.792Z,11.97
2018-09-19T09:26:36.608Z,10.53
2018-09-19T09:29:14.453Z,11.33
2018-09-19T09:32:01.079Z,13.38
2018-09-19T09:34:33.820Z,11.17
2018-09-19T09:37:06.820Z,15.08
2018-09-19T09:39:40.546Z,12.30
2018-09-19T09:42:13.898Z,11.67
2018-09-19T09:44:47.123Z,13.30
2018-09-19T09:47:20.056Z,11.70
2018-09-19T09:49:53.567Z,12.40
2018-09-19T09:52:31.693Z,10.97
2018-09-19T09:55:04.544Z,10.37
2018-09-19T09:57:43.540Z,11.03
2018-09-19T10:00:21.539Z,10.27
2018-09-19T10:02:54.502Z,11.13
2018-09-19T10:05:27.534Z,9.87
2018-09-19T10:08:00.340Z,10.03
2018-09-19T10:10:33.218Z,11.43
2018-09-19T10:13:06.388Z,11.37
2018-09-19T10:15:39.196Z,11.73
2018-09-19T10:18:12.160Z,10.67
2018-09-19T10:20:44.786Z,13.62
2018-09-19T10:23:17.416Z,12.75
2018-09-19T10:25:50.165Z,13.50
2018-09-19T10:28:23.157Z,13.43
2018-09-19T10:30:55.941Z,14.97
2018-09-19T10:33:28.826Z,25.30
2018-09-19T10:36:02.275Z,14.03
2018-09-19T10:38:36.014Z,12.93
2018-09-19T10:41:09.021Z,13.70
2018-09-19T10:43:41.892Z,13.13
2018-09-19T10:46:14.850Z,15.73
2018-09-19T10:48:47.753Z,22.27
2018-09-19T10:51:20.620Z,18.03
2018-09-19T10:54:01.305Z,20.03
2018-09-19T10:56:34.328Z,28.07
2018-09-19T10:59:07.530Z,21.25
2018-09-19T11:01:40.815Z,19.77
2018-09-19T11:04:13.961Z,18.17
2018-09-19T11:06:53.317Z,18.57
2018-09-19T11:09:26.862Z,22.23
2018-09-19T11:12:00.053Z,18.60
2018-09-19T11:14:33.149Z,28.77
2018-09-19T11:17:05.923Z,21.90
2018-09-19T11:19:38.907Z,16.63
2018-09-19T11:22:11.819Z,24.90
2018-09-19T11:24:50.082Z,22.97
2018-09-19T11:27:23.248Z,22.47
2018-09-19T11:29:56.188Z,27.00
2018-09-19T11:32:35.269Z,28.77
2018-09-19T11:35:15.222Z,36.95
2018-09-19T11:37:53.157Z,24.73
2018-09-19T11:40:25.966Z,22.43
2018-09-19T11:42:58.938Z,26.67
2018-09-19T11:45:32.064Z,37.47
2018-09-19T11:48:16.593Z,24.67
2018-09-19T11:51:00.960Z,25.60
2018-09-19T11:53:45.335Z,25.33
2018-09-19T11:56:24.912Z,20.77
2018-09-19T11:59:01.424Z,22.93
2018-09-19T12:01:34.442Z,18.70
2018-09-19T12:04:12.902Z,19.97
2018-09-19T12:06:52.834Z,17.50
2018-09-19T12:09:34.545Z,17.53
2018-09-19T12:12:12.152Z,23.27
2018-09-19T12:14:45.071Z,21.20
2018-09-19T12:17:17.971Z,26.25
2018-09-19T12:19:51.846Z,19.67
2018-09-19T12:22:31.830Z,21.40
2018-09-19T12:25:04.442Z,19.33
2018-09-19T12:27:37.431Z,17.37
2018-09-19T12:30:15.382Z,16.90
2018-09-19T12:32:50.397Z,19.23
2018-09-19T12:35:24.069Z,19.43
2018-09-19T12:37:56.863Z,18.57
2018-09-19T12:40:34.751Z,23.57
2018-09-19T12:43:13.200Z,19.33
2018-09-19T12:45:52.049Z,19.27
2018-09-19T12:48:28.981Z,19.63
2018-09-19T12:51:04.049Z,25.33
2018-09-19T12:53:37.108Z,28.93
2018-09-19T12:56:11.160Z,21.13
2018-09-19T12:58:47.723Z,24.30
2018-09-19T13:01:21.073Z,22.33
2018-09-19T13:03:54.663Z,22.13
2018-09-19T13:06:27.945Z,23.27
2018-09-19T13:09:01.583Z,19.70
2018-09-19T13:11:35.159Z,48.17
2018-09-19T13:14:08.364Z,19.37
2018-09-19T13:16:42.619Z,21.60
2018-09-19T13:19:15.994Z,19.57
2018-09-19T13:21:49.019Z,22.53
2018-09-19T13:24:23.002Z,18.47
2018-09-19T13:26:56.118Z,18.30
2018-09-19T13:29:32.851Z,17.50
2018-09-19T13:32:05.959Z,24.13
2018-09-19T13:34:38.872Z,23.40
2018-09-19T13:37:11.857Z,14.63
2018-09-19T13:39:47.765Z,15.83
2018-09-19T13:42:21.467Z,11.63
2018-09-19T13:44:56.314Z,14.93
2018-09-19T13:47:29.551Z,17.13
2018-09-19T13:50:18.822Z,15.27
2018-09-19T13:52:52.081Z,11.00
2018-09-19T13:55:30.115Z,14.57
2018-09-19T13:58:02.920Z,12.07
2018-09-19T14:00:42.273Z,10.32
2018-09-19T14:03:15.294Z,10.77
2018-09-19T14:05:48.389Z,11.37
2018-09-19T14:08:21.896Z,17.33
2018-09-19T14:10:55.913Z,6.67
2018-09-19T14:13:29.587Z,15.40
2018-09-19T14:16:03.135Z,10.00
2018-09-19T14:21:53.035Z,9.83
2018-09-19T14:24:26.302Z,9.80
2018-09-19T14:27:00.522Z,8.03
2018-09-19T14:29:34.193Z,49.87
2018-09-19T14:32:07.390Z,9.87
2018-09-19T14:34:41.930Z,6.50
2018-09-19T14:37:15.381Z,10.53
2018-09-19T14:39:53.802Z,6.58
2018-09-19T14:42:27.465Z,6.27
2018-09-19T14:45:00.228Z,8.53
2018-09-19T14:47:36.954Z,5.93
2018-09-19T14:50:10.028Z,8.13
2018-09-19T14:52:44.313Z,4.43
2018-09-19T14:55:17.144Z,11.27
2018-09-19T14:57:53.331Z,5.03
2018-09-19T15:00:26.621Z,5.47
2018-09-19T15:02:59.586Z,7.13
2018-09-19T15:05:32.611Z,6.07
2018-09-19T15:08:07.465Z,7.40
2018-09-19T15:10:40.433Z,6.77
2018-09-19T15:13:13.272Z,6.90
2018-09-19T15:15:48.055Z,15.17
2018-09-19T15:18:20.970Z,9.50
2018-09-19T15:20:56.526Z,4.87
2018-09-19T15:23:30.108Z,5.70
2018-09-19T15:26:03.613Z,8.67
2018-09-19T15:28:41.548Z,6.87
2018-09-19T15:31:16.090Z,6.55
2018-09-19T15:33:49.756Z,5.40
2018-09-19T15:36:22.716Z,14.00
2018-09-19T15:38:56.361Z,8.67
2018-09-19T15:41:29.409Z,5.93
2018-09-19T15:44:03.444Z,18.27
2018-09-19T15:46:39.777Z,8.17
2018-09-19T15:49:12.798Z,6.67
2018-09-19T15:51:47.213Z,9.30
2018-09-19T15:54:26.274Z,7.23
2018-09-19T15:57:00.942Z,6.37
2018-09-19T15:59:37.257Z,7.50
2018-09-19T16:02:13.383Z,6.37
2018-09-19T16:04:47.999Z,5.40
2018-09-19T16:07:22.821Z,5.60
2018-09-19T16:09:59.716Z,19.10
2018-09-19T16:12:39.612Z,7.77
2018-09-19T16:15:14.236Z,5.75
2018-09-19T16:17:51.072Z,6.30
2018-09-19T16:20:24.786Z,4.97
2018-09-19T16:22:58.138Z,7.83
2018-09-19T16:28:42.895Z,8.60
2018-09-19T16:31:20.330Z,7.03
2018-09-19T16:33:56.363Z,10.87
2018-09-19T16:36:35.416Z,5.37
2018-09-19T16:39:17.456Z,5.90
2018-09-19T16:41:55.268Z,5.50
2018-09-19T16:44:31.483Z,5.30
2018-09-19T16:47:04.864Z,5.80
2018-09-19T16:49:42.791Z,6.70
2018-09-19T16:52:17.327Z,5.40
2018-09-19T16:54:54.117Z,6.33
2018-09-19T16:57:31.720Z,6.53
2018-09-19T17:00:05.072Z,4.40
2018-09-19T17:02:38.213Z,6.13
2018-09-19T17:05:12.217Z,6.47
2018-09-19T17:07:58.959Z,6.20
2018-09-19T17:10:35.234Z,8.73
2018-09-19T17:13:13.479Z,6.80
2018-09-19T17:15:56.115Z,5.87
2018-09-19T17:18:29.844Z,5.70
2018-09-19T17:21:06.488Z,3.80
2018-09-19T17:23:39.861Z,6.90
2018-09-19T17:26:18.416Z,4.77
2018-09-19T17:28:53.079Z,4.60
2018-09-19T17:31:26.473Z,5.20
2018-09-19T17:33:59.411Z,7.10
2018-09-19T17:36:34.498Z,6.20
2018-09-19T17:39:13.249Z,7.75
2018-09-19T17:41:51.936Z,6.27
2018-09-19T17:44:44.961Z,5.67
2018-09-19T17:47:24.478Z,6.67
2018-09-19T17:49:58.582Z,5.73
2018-09-19T17:52:33.712Z,7.03
2018-09-19T17:55:10.934Z,5.97
2018-09-19T17:57:50.806Z,10.00
2018-09-19T18:00:28.072Z,6.30
2018-09-19T18:03:03.064Z,4.33
2018-09-19T18:05:37.457Z,5.30
2018-09-19T18:08:11.366Z,15.20
2018-09-19T18:10:45.505Z,5.37
2018-09-19T18:13:21.155Z,5.70
2018-09-19T18:15:56.441Z,7.97
2018-09-19T18:18:30.077Z,3.87
2018-09-19T18:21:05.747Z,6.03
2018-09-19T18:23:40.118Z,4.60
2018-09-19T18:26:18.930Z,4.50
2018-09-19T18:29:01.822Z,4.43
2018-09-19T18:31:35.734Z,5.73
2018-09-19T18:34:10.592Z,6.70
2018-09-19T18:36:44.017Z,7.27
2018-09-19T18:39:24.000Z,18.60
2018-09-19T18:42:06.958Z,5.00
2018-09-19T18:44:46.162Z,7.13
2018-09-19T18:47:22.190Z,6.30
2018-09-19T18:49:57.154Z,13.97
2018-09-19T18:52:31.990Z,9.00
2018-09-19T18:55:09.404Z,13.67
2018-09-19T18:57:42.744Z,5.10
2018-09-19T19:00:17.199Z,7.83
2018-09-19T19:02:50.775Z,8.43
2018-09-19T19:05:29.954Z,4.10
2018-09-19T19:08:04.606Z,6.77
2018-09-19T19:10:40.962Z,5.17
2018-09-19T19:13:14.667Z,8.63
2018-09-19T19:15:48.608Z,5.07
2018-09-19T19:18:22.043Z,7.40
2018-09-19T19:20:55.505Z,6.00
2018-09-19T19:23:34.278Z,7.30
2018-09-19T19:26:07.601Z,8.77
2018-09-19T19:28:42.924Z,10.78
2018-09-19T19:31:16.609Z,6.87
2018-09-19T19:33:51.577Z,9.87
2018-09-19T19:36:27.140Z,5.60
2018-09-19T19:39:01.738Z,5.70
2018-09-19T19:41:38.532Z,7.20
2018-09-19T19:44:12.380Z,8.43
2018-09-19T19:46:46.580Z,5.62
2018-09-19T19:49:21.388Z,7.65
2018-09-19T19:51:55.014Z,8.18
2018-09-19T19:54:29.266Z,5.83
2018-09-19T19:57:03.201Z,6.63
2018-09-19T19:59:36.989Z,5.10
2018-09-19T20:02:09.702Z,5.30
2018-09-19T20:04:42.916Z,6.93
2018-09-19T20:07:17.519Z,10.80
2018-09-19T20:09:57.224Z,7.17
2018-09-19T20:12:31.123Z,6.70
2018-09-19T20:15:06.130Z,5.13
2018-09-19T20:17:42.429Z,4.40
2018-09-19T20:20:27.626Z,6.22
2018-09-19T20:23:02.265Z,4.80
2018-09-19T20:25:37.737Z,7.80
2018-09-19T20:28:12.225Z,5.47
2018-09-19T20:30:46.830Z,5.80
2018-09-19T20:33:20.876Z,12.17
2018-09-19T20:35:54.151Z,4.40
2018-09-19T20:38:30.855Z,4.40
2018-09-19T20:41:03.995Z,6.47
2018-09-19T20:43:36.861Z,5.30
2018-09-19T20:46:13.304Z,4.87
2018-09-19T20:48:49.571Z,8.83
2018-09-19T20:51:22.343Z,10.50
2018-09-19T20:53:55.353Z,7.60
2018-09-19T20:56:28.341Z,5.30
2018-09-19T20:59:01.585Z,6.13
2018-09-19T21:01:36.044Z,8.93
2018-09-19T21:04:09.413Z,5.70
2018-09-19T21:06:42.638Z,5.27
2018-09-19T21:09:21.060Z,9.17
2018-09-19T21:11:53.907Z,6.10
2018-09-19T21:14:26.754Z,6.00
2018-09-19T21:16:59.757Z,10.57
2018-09-19T21:19:32.645Z,4.30
2018-09-19T21:22:05.320Z,8.00
2018-09-19T21:24:39.327Z,4.93
2018-09-19T21:27:12.389Z,8.90
2018-09-19T21:29:52.322Z,11.70
2018-09-19T21:32:26.058Z,11.10
2018-09-19T21:34:59.931Z,10.43
2018-09-19T21:37:34.347Z,9.73
2018-09-19T21:40:08.799Z,8.00
2018-09-19T21:42:42.536Z,7.13
2018-09-19T21:45:16.143Z,6.63
2018-09-19T21:47:49.639Z,6.17
2018-09-19T21:50:22.854Z,6.50
2018-09-19T21:53:03.749Z,6.40
2018-09-19T21:55:40.780Z,7.07
2018-09-19T21:58:13.786Z,9.10
2018-09-19T22:00:51.678Z,14.30
2018-09-19T22:03:26.772Z,14.57
2018-09-19T22:05:59.710Z,13.83
2018-09-19T22:08:33.223Z,11.30
2018-09-19T22:11:07.109Z,15.00
2018-09-19T22:13:40.613Z,14.40
2018-09-19T22:16:18.002Z,15.87
2018-09-19T22:18:51.216Z,10.53
2018-09-19T22:21:25.854Z,9.23
2018-09-19T22:24:08.197Z,7.93
2018-09-19T22:26:44.639Z,10.93
2018-09-19T22:29:19.845Z,8.30
2018-09-19T22:31:57.262Z,11.80
2018-09-19T22:34:32.919Z,12.23
2018-09-19T22:37:06.364Z,8.30
2018-09-19T22:39:55.072Z,10.93
2018-09-19T22:42:34.738Z,9.70
2018-09-19T22:45:07.932Z,12.57
2018-09-19T22:47:44.099Z,11.40
2018-09-19T22:50:18.153Z,8.20
2018-09-19T22:52:50.985Z,11.43
2018-09-19T22:55:26.854Z,9.27
2018-09-19T22:58:00.116Z,10.10
2018-09-19T23:00:33.213Z,9.07
2018-09-19T23:03:09.326Z,9.00
2018-09-19T23:05:46.328Z,9.83
2018-09-19T23:08:19.181Z,9.10
2018-09-19T23:10:52.013Z,12.40
2018-09-19T23:13:24.990Z,12.60
2018-09-19T23:15:58.043Z,11.23
2018-09-19T23:18:30.856Z,9.90
2018-09-19T23:21:04.067Z,11.83
2018-09-19T23:23:37.138Z,11.10
2018-09-19T23:26:10.562Z,10.57
2018-09-19T23:28:44.304Z,10.83
2018-09-19T23:31:17.225Z,12.27
2018-09-19T23:33:51.388Z,9.03
2018-09-19T23:36:24.513Z,9.97
2018-09-19T23:38:57.467Z,11.20
2018-09-19T23:41:31.101Z,10.00
2018-09-19T23:44:03.967Z,10.20
2018-09-19T23:46:37.165Z,9.67
2018-09-19T23:49:11.437Z,11.13
2018-09-19T23:51:46.338Z,15.90
2018-09-19T23:54:19.416Z,16.97
2018-09-19T23:56:53.996Z,15.33
2018-09-19T23:59:30.342Z,14.47
